Forside
METAR-TAF:

METAR-TAF

Lufthavne :

Dayton, Ohio, USA

Breddekreds: 39-35-20N, længdekreds: 084-13-29W, højde: 292 m

Aktuelle vejr

Denne rapport blev lavet for 49 minutter siden, kl. 20:53 UTC
Vind 9 kt fra sydvest
Temperatur 3°C
Fugtighed 75%
Tryk 1013 hPa
Sigt: 16.1 km
Overskyet i en højde af 1600 ft

METAR: KMGY 262053Z AUTO 23009KT 10SM OVC016 03/M01 A2992 RMK AO2 SLP138 T00281011 55012

Tid: 16:42 (21:42 UTC)


TAF: fraværende

Vejrobservationer og prognoser fra mere end 4000 lufthavne (METAR og TAF).

De gule og røde prikker repræsenterer de meteorologiske stationer.

Flyt musen over at se navnet på stationen.

Så klik over at se vejr observationer og prognoser.

At skifte det kort: Klik på de grønne knapper med et sort kors for at zoome ind; på den grønne knap med en bindestreg for at zoome ud; eller på de grønne pile for tilstødende kort.


METAR-TAF: